createdAt,value
2022-12-15T00:01:02.858Z,22.18
2022-12-15T00:01:58.341Z,22.12
2022-12-15T00:02:42.903Z,22.19
2022-12-15T00:03:38.520Z,22.16
2022-12-15T00:04:33.944Z,22.13
2022-12-15T00:05:40.519Z,22.25
2022-12-15T00:06:36.084Z,22.19
2022-12-15T00:07:31.619Z,22.19
2022-12-15T00:08:27.167Z,22.15
2022-12-15T00:09:14.400Z,22.12
2022-12-15T00:10:18.249Z,22.15
2022-12-15T00:11:02.749Z,22.19
2022-12-15T00:11:58.294Z,22.21
2022-12-15T00:12:42.762Z,22.13
2022-12-15T00:13:27.644Z,22.11
2022-12-15T00:14:23.050Z,22.11
2022-12-15T00:15:18.576Z,22.16
2022-12-15T00:16:14.223Z,22.12
2022-12-15T00:16:58.658Z,22.13
2022-12-15T00:17:54.225Z,22.13
2022-12-15T00:18:38.691Z,22.09
2022-12-15T00:19:34.741Z,22.16
2022-12-15T00:20:30.319Z,22.18
2022-12-15T00:21:25.846Z,22.13
2022-12-15T00:22:21.388Z,22.19
2022-12-15T00:23:16.930Z,22.19
2022-12-15T00:24:01.419Z,22.18
2022-12-15T00:24:56.957Z,22.09
2022-12-15T00:25:52.496Z,22.22
2022-12-15T00:26:59.119Z,22.16
2022-12-15T00:27:43.596Z,22.13
2022-12-15T00:28:50.229Z,22.18
2022-12-15T00:29:45.764Z,22.15
2022-12-15T00:30:30.300Z,22.09
2022-12-15T00:31:25.913Z,22.16
2022-12-15T00:32:21.386Z,22.16
2022-12-15T00:33:05.857Z,22.15
2022-12-15T00:33:50.546Z,22.18
2022-12-15T00:34:46.080Z,22.21
2022-12-15T00:35:53.199Z,22.15
2022-12-15T00:36:49.801Z,22.11
2022-12-15T00:37:44.284Z,22.09
2022-12-15T00:38:28.761Z,22.09
2022-12-15T00:39:35.398Z,22.15
2022-12-15T00:40:30.929Z,22.16
2022-12-15T00:41:26.485Z,22.15
2022-12-15T00:42:10.975Z,22.12
2022-12-15T00:43:06.500Z,22.12
2022-12-15T00:44:02.051Z,22.18
2022-12-15T00:44:57.588Z,22.23
2022-12-15T00:45:53.126Z,22.12
2022-12-15T00:46:48.854Z,22.12
2022-12-15T00:47:55.269Z,22.19
2022-12-15T00:48:50.816Z,22.12
2022-12-15T00:49:46.356Z,22.12
2022-12-15T00:50:41.887Z,22.12
2022-12-15T00:51:37.466Z,22.16
2022-12-15T00:52:32.988Z,22.15
2022-12-15T00:53:28.915Z,22.09
2022-12-15T00:54:24.085Z,22.15
2022-12-15T00:55:20.211Z,22.04
2022-12-15T00:56:15.757Z,22.12
2022-12-15T00:57:11.296Z,22.12
2022-12-15T00:58:06.839Z,22.06
2022-12-15T00:59:02.395Z,22.06
2022-12-15T00:59:57.933Z,22.15
2022-12-15T01:00:53.464Z,22.12
2022-12-15T01:01:49.605Z,22.12
2022-12-15T01:02:44.738Z,22.09
2022-12-15T01:03:41.238Z,22.15
2022-12-15T01:04:25.571Z,22.18
2022-12-15T01:05:21.138Z,22.16
2022-12-15T01:06:27.745Z,22.11
2022-12-15T01:07:12.223Z,22.12
2022-12-15T01:07:56.687Z,22.15
2022-12-15T01:08:52.235Z,22.15
2022-12-15T01:09:47.777Z,22.12
2022-12-15T01:10:43.313Z,22.18
2022-12-15T01:11:38.863Z,22.13
2022-12-15T01:12:34.409Z,22.12
2022-12-15T01:13:30.304Z,22.13
2022-12-15T01:14:25.488Z,22.12
2022-12-15T01:15:21.015Z,22.07
2022-12-15T01:16:16.622Z,22.04
2022-12-15T01:17:12.120Z,22.09
2022-12-15T01:18:07.657Z,22.06
2022-12-15T01:18:52.145Z,22.09
2022-12-15T01:19:47.688Z,22.12
2022-12-15T01:20:43.227Z,22.16
2022-12-15T01:21:38.768Z,22.12
2022-12-15T01:22:34.330Z,22.13
2022-12-15T01:23:30.332Z,22.12
2022-12-15T01:24:25.400Z,22.12
2022-12-15T01:25:20.940Z,22.12
2022-12-15T01:26:16.477Z,22.13
2022-12-15T01:27:12.015Z,22.16
2022-12-15T01:28:07.551Z,22.15
2022-12-15T01:28:52.028Z,22.15
2022-12-15T01:29:47.582Z,22.16
2022-12-15T01:30:43.133Z,22.16
2022-12-15T01:31:38.711Z,22.18
2022-12-15T01:32:34.214Z,22.21
2022-12-15T01:33:30.179Z,22.12
2022-12-15T01:34:25.293Z,22.04
2022-12-15T01:35:20.826Z,22.12
2022-12-15T01:36:16.368Z,22.03
2022-12-15T01:37:11.906Z,22.03
2022-12-15T01:38:07.469Z,22.00
2022-12-15T01:38:54.240Z,22.07
2022-12-15T01:39:47.479Z,21.98
2022-12-15T01:40:43.010Z,22.09
2022-12-15T01:41:49.608Z,21.98
2022-12-15T01:42:45.152Z,22.13
2022-12-15T01:43:40.693Z,22.12
2022-12-15T01:44:25.181Z,22.16
2022-12-15T01:45:31.794Z,22.13
2022-12-15T01:46:16.340Z,22.11
2022-12-15T01:47:11.881Z,22.16
2022-12-15T01:48:07.364Z,22.13
2022-12-15T01:49:03.019Z,22.11
2022-12-15T01:49:58.559Z,22.15
2022-12-15T01:50:54.116Z,22.18
2022-12-15T01:51:38.573Z,22.15
2022-12-15T01:52:45.168Z,22.16
2022-12-15T01:53:30.028Z,22.15
2022-12-15T01:54:25.200Z,22.13
2022-12-15T01:55:20.731Z,21.98
2022-12-15T01:56:16.274Z,21.97
2022-12-15T01:57:11.805Z,22.00
2022-12-15T01:58:07.336Z,22.03
2022-12-15T01:59:02.881Z,22.07
2022-12-15T01:59:58.424Z,22.06
2022-12-15T02:00:54.068Z,22.03
2022-12-15T02:01:49.996Z,22.15
2022-12-15T02:02:45.176Z,22.09
2022-12-15T02:03:40.575Z,22.12
2022-12-15T02:04:36.114Z,22.09
2022-12-15T02:05:31.662Z,22.13
2022-12-15T02:06:27.201Z,22.16
2022-12-15T02:07:22.746Z,22.11
2022-12-15T02:08:07.209Z,22.12
2022-12-15T02:09:02.786Z,22.15
2022-12-15T02:09:58.320Z,22.11
2022-12-15T02:10:53.874Z,22.16
2022-12-15T02:11:49.420Z,22.09
2022-12-15T02:12:44.953Z,22.06
2022-12-15T02:13:40.493Z,22.07
2022-12-15T02:14:36.037Z,22.00
2022-12-15T02:15:31.578Z,22.00
2022-12-15T02:16:27.163Z,22.01
2022-12-15T02:17:22.664Z,22.01
2022-12-15T02:18:18.207Z,22.07
2022-12-15T02:19:13.726Z,22.09
2022-12-15T02:20:09.278Z,22.12
2022-12-15T02:21:04.834Z,22.19
2022-12-15T02:22:00.401Z,22.15
2022-12-15T02:22:55.936Z,22.12
2022-12-15T02:23:51.473Z,22.15
2022-12-15T02:24:49.679Z,22.18
2022-12-15T02:25:42.554Z,22.01
2022-12-15T02:26:38.107Z,22.04
2022-12-15T02:27:33.646Z,22.13
2022-12-15T02:28:29.183Z,22.04
2022-12-15T02:29:24.717Z,22.06
2022-12-15T02:30:20.259Z,22.04
2022-12-15T02:31:15.858Z,22.03
2022-12-15T02:32:11.352Z,22.04
2022-12-15T02:33:06.893Z,22.00
2022-12-15T02:33:51.356Z,22.04
2022-12-15T02:34:46.919Z,22.04
2022-12-15T02:35:42.450Z,22.07
2022-12-15T02:36:37.988Z,22.01
2022-12-15T02:37:33.514Z,22.01
2022-12-15T02:38:17.991Z,22.03
2022-12-15T02:39:13.530Z,22.15
2022-12-15T02:40:09.089Z,22.00
2022-12-15T02:41:15.660Z,22.03
2022-12-15T02:42:11.225Z,21.98
2022-12-15T02:42:55.723Z,22.04
2022-12-15T02:43:51.292Z,22.04
2022-12-15T02:44:46.832Z,22.09
2022-12-15T02:45:42.404Z,22.09
2022-12-15T02:46:37.937Z,22.06
2022-12-15T02:47:33.981Z,22.03
2022-12-15T02:48:29.518Z,21.97
2022-12-15T02:49:25.050Z,22.01
2022-12-15T02:50:20.580Z,22.09
2022-12-15T02:51:16.124Z,22.03
2022-12-15T02:52:11.659Z,22.07
2022-12-15T02:52:56.149Z,22.01
2022-12-15T02:53:51.696Z,21.98
2022-12-15T02:54:47.244Z,21.98
2022-12-15T02:55:43.083Z,22.01
2022-12-15T02:56:38.318Z,22.00
2022-12-15T02:57:33.863Z,22.04
2022-12-15T02:58:29.407Z,22.04
2022-12-15T02:59:24.949Z,22.11
2022-12-15T03:00:20.479Z,22.04
2022-12-15T03:01:16.100Z,22.03
2022-12-15T03:02:11.757Z,22.03
2022-12-15T03:03:07.253Z,21.98
2022-12-15T03:04:07.678Z,22.04
2022-12-15T03:04:52.145Z,22.04
2022-12-15T03:05:47.694Z,21.98
2022-12-15T03:06:43.236Z,22.01
2022-12-15T03:07:38.772Z,22.00
2022-12-15T03:08:34.315Z,22.01
2022-12-15T03:09:29.847Z,22.01
2022-12-15T03:10:25.401Z,22.04
2022-12-15T03:11:20.972Z,21.97
2022-12-15T03:12:16.473Z,21.94
2022-12-15T03:13:00.950Z,21.97
2022-12-15T03:13:45.655Z,21.97
2022-12-15T03:14:41.200Z,22.03
2022-12-15T03:15:47.803Z,21.93
2022-12-15T03:16:32.339Z,22.00
2022-12-15T03:17:27.831Z,21.97
2022-12-15T03:18:34.451Z,22.01
2022-12-15T03:19:29.992Z,21.98
2022-12-15T03:20:14.467Z,22.04
2022-12-15T03:21:10.073Z,22.01
2022-12-15T03:22:05.610Z,22.04
2022-12-15T03:22:50.077Z,22.01
2022-12-15T03:23:45.615Z,22.01
2022-12-15T03:24:41.160Z,22.06
2022-12-15T03:25:49.730Z,22.04
2022-12-15T03:26:43.321Z,22.00
2022-12-15T03:27:38.830Z,22.06
2022-12-15T03:28:23.301Z,22.04
2022-12-15T03:29:29.930Z,22.03
2022-12-15T03:30:25.470Z,22.03
2022-12-15T03:31:09.974Z,22.07
2022-12-15T03:32:05.644Z,21.98
2022-12-15T03:33:01.063Z,22.01
2022-12-15T03:33:56.608Z,22.01
2022-12-15T03:34:52.143Z,22.04
2022-12-15T03:35:47.697Z,22.06
2022-12-15T03:36:43.228Z,22.04
2022-12-15T03:37:38.763Z,22.04
2022-12-15T03:38:23.252Z,22.09
2022-12-15T03:39:18.792Z,22.07
2022-12-15T03:40:14.328Z,22.06
2022-12-15T03:41:09.868Z,22.07
2022-12-15T03:42:05.563Z,22.03
2022-12-15T03:43:00.935Z,22.06
2022-12-15T03:43:56.485Z,21.97
2022-12-15T03:44:52.026Z,22.01
2022-12-15T03:45:47.630Z,22.01
2022-12-15T03:46:43.112Z,21.96
2022-12-15T03:47:38.652Z,21.97
2022-12-15T03:48:34.195Z,22.07
2022-12-15T03:49:29.738Z,22.03
2022-12-15T03:50:25.273Z,22.04
2022-12-15T03:51:20.836Z,22.01
2022-12-15T03:52:16.364Z,22.00
2022-12-15T03:53:00.841Z,22.03
2022-12-15T03:53:56.384Z,22.03
2022-12-15T03:54:52.421Z,22.01
2022-12-15T03:55:47.971Z,22.07
2022-12-15T03:56:54.590Z,22.00
2022-12-15T03:57:50.173Z,22.01
2022-12-15T03:58:34.620Z,22.04
2022-12-15T03:59:30.176Z,22.01
2022-12-15T04:00:25.718Z,22.06
2022-12-15T04:01:21.437Z,21.97
2022-12-15T04:02:17.012Z,22.01
2022-12-15T04:03:12.498Z,22.04
2022-12-15T04:04:07.906Z,21.98
2022-12-15T04:05:03.462Z,22.06
2022-12-15T04:05:59.048Z,22.03
2022-12-15T04:06:54.587Z,21.98
2022-12-15T04:07:50.134Z,22.04
2022-12-15T04:08:45.685Z,22.04
2022-12-15T04:09:41.220Z,22.01
2022-12-15T04:10:31.752Z,22.00
2022-12-15T04:11:32.325Z,22.04
2022-12-15T04:12:27.866Z,22.04
2022-12-15T04:13:23.439Z,22.03
2022-12-15T04:14:07.895Z,22.03
2022-12-15T04:15:03.446Z,22.06
2022-12-15T04:15:58.985Z,22.01
2022-12-15T04:16:54.592Z,21.98
2022-12-15T04:17:50.062Z,21.98
2022-12-15T04:18:45.602Z,21.96
2022-12-15T04:19:41.150Z,22.00
2022-12-15T04:20:36.701Z,21.97
2022-12-15T04:21:32.234Z,21.97
2022-12-15T04:22:27.781Z,21.94
2022-12-15T04:23:23.331Z,21.90
2022-12-15T04:24:18.890Z,21.90
2022-12-15T04:25:14.418Z,21.98
2022-12-15T04:25:58.884Z,21.98
2022-12-15T04:26:54.992Z,21.98
2022-12-15T04:27:50.534Z,21.98
2022-12-15T04:28:57.160Z,21.93
2022-12-15T04:29:52.685Z,22.01
2022-12-15T04:30:37.172Z,21.97
2022-12-15T04:31:32.828Z,22.03
2022-12-15T04:32:17.178Z,22.00
2022-12-15T04:33:27.704Z,21.94
2022-12-15T04:34:08.285Z,22.01
2022-12-15T04:35:03.805Z,21.94
2022-12-15T04:35:59.343Z,21.94
2022-12-15T04:36:54.884Z,22.00
2022-12-15T04:37:50.446Z,21.96
2022-12-15T04:38:50.575Z,21.90
2022-12-15T04:39:41.540Z,21.88
2022-12-15T04:40:37.086Z,21.97
2022-12-15T04:41:32.643Z,21.90
2022-12-15T04:42:28.192Z,21.96
2022-12-15T04:43:13.447Z,21.98
2022-12-15T04:44:09.013Z,21.93
2022-12-15T04:45:04.522Z,22.04
2022-12-15T04:46:00.136Z,21.94
2022-12-15T04:46:55.598Z,22.01
2022-12-15T04:47:51.144Z,22.06
2022-12-15T04:48:57.762Z,22.03
2022-12-15T04:49:53.298Z,22.09
2022-12-15T04:50:48.840Z,22.12
2022-12-15T04:51:44.375Z,22.16
2022-12-15T04:52:39.921Z,22.16
2022-12-15T04:53:24.406Z,22.19
2022-12-15T04:54:19.964Z,22.21
2022-12-15T04:55:26.568Z,22.33
2022-12-15T04:56:15.106Z,22.31
2022-12-15T04:57:06.595Z,22.34
2022-12-15T04:58:02.127Z,22.31
2022-12-15T04:58:46.657Z,22.27
2022-12-15T04:59:42.225Z,22.34
2022-12-15T05:00:37.761Z,22.40
2022-12-15T05:01:33.528Z,22.40
2022-12-15T05:02:29.034Z,22.36
2022-12-15T05:03:24.395Z,22.46
2022-12-15T05:04:20.019Z,22.40
2022-12-15T05:05:15.494Z,22.37
2022-12-15T05:05:59.964Z,22.37
2022-12-15T05:06:55.519Z,22.43
2022-12-15T05:07:51.064Z,22.40
2022-12-15T05:08:46.604Z,22.38
2022-12-15T05:09:42.155Z,22.31
2022-12-15T05:10:37.703Z,22.48
2022-12-15T05:11:33.243Z,22.43
2022-12-15T05:12:28.788Z,22.41
2022-12-15T05:13:24.326Z,22.40
2022-12-15T05:14:19.871Z,22.37
2022-12-15T05:15:15.448Z,22.41
2022-12-15T05:16:11.113Z,22.48
2022-12-15T05:17:06.598Z,22.40
2022-12-15T05:18:02.064Z,22.46
2022-12-15T05:18:57.608Z,22.53
2022-12-15T05:19:53.130Z,22.49
2022-12-15T05:20:50.117Z,22.46
2022-12-15T05:21:44.251Z,22.51
2022-12-15T05:22:39.793Z,22.51
2022-12-15T05:23:35.337Z,22.48
2022-12-15T05:24:30.897Z,22.46
2022-12-15T05:25:15.557Z,22.46
2022-12-15T05:26:11.092Z,22.49
2022-12-15T05:27:06.645Z,22.43
2022-12-15T05:28:02.185Z,22.44
2022-12-15T05:28:57.744Z,22.43
2022-12-15T05:29:53.288Z,22.46
2022-12-15T05:30:48.919Z,22.40
2022-12-15T05:31:44.392Z,22.46
2022-12-15T05:32:39.941Z,22.46
2022-12-15T05:33:35.483Z,22.51
2022-12-15T05:34:31.033Z,22.44
2022-12-15T05:35:26.603Z,22.48
2022-12-15T05:36:22.146Z,22.43
2022-12-15T05:37:17.687Z,22.44
2022-12-15T05:38:13.219Z,22.43
2022-12-15T05:39:08.757Z,22.37
2022-12-15T05:40:04.297Z,22.49
2022-12-15T05:41:00.440Z,22.44
2022-12-15T05:41:55.991Z,22.41
2022-12-15T05:42:51.538Z,22.44
2022-12-15T05:43:36.021Z,22.40
2022-12-15T05:44:31.570Z,22.51
2022-12-15T05:45:27.136Z,22.43
2022-12-15T05:46:22.734Z,22.51
2022-12-15T05:47:18.216Z,22.41
2022-12-15T05:48:13.749Z,22.41
2022-12-15T05:49:09.303Z,22.44
2022-12-15T05:50:04.904Z,22.48
2022-12-15T05:51:00.387Z,22.43
2022-12-15T05:51:55.952Z,22.40
2022-12-15T05:52:51.494Z,22.46
2022-12-15T05:53:47.038Z,22.34
2022-12-15T05:54:42.617Z,22.38
2022-12-15T05:55:38.168Z,22.38
2022-12-15T05:56:33.891Z,22.44
2022-12-15T05:57:29.836Z,22.34
2022-12-15T05:58:25.347Z,22.34
2022-12-15T05:59:20.924Z,22.34
2022-12-15T06:00:16.448Z,22.37
2022-12-15T06:01:11.985Z,22.30
2022-12-15T06:02:07.596Z,22.34
2022-12-15T06:03:03.151Z,22.30
2022-12-15T06:03:58.630Z,22.31
2022-12-15T06:04:54.272Z,22.37
2022-12-15T06:05:56.160Z,22.37
2022-12-15T06:06:45.262Z,22.30
2022-12-15T06:07:40.828Z,22.34
2022-12-15T06:08:36.370Z,22.27
2022-12-15T06:09:31.914Z,22.33
2022-12-15T06:10:27.459Z,22.21
2022-12-15T06:11:23.036Z,22.19
2022-12-15T06:12:18.633Z,22.19
2022-12-15T06:13:03.158Z,22.19
2022-12-15T06:13:58.722Z,22.19
2022-12-15T06:14:54.960Z,22.16
2022-12-15T06:15:50.600Z,22.16
2022-12-15T06:16:38.310Z,22.19
2022-12-15T06:17:30.587Z,22.16
2022-12-15T06:18:26.115Z,22.12
2022-12-15T06:19:21.657Z,22.19
2022-12-15T06:20:17.225Z,22.15
2022-12-15T06:21:12.739Z,22.13
2022-12-15T06:22:08.296Z,22.09
2022-12-15T06:23:03.821Z,22.12
2022-12-15T06:23:59.350Z,22.18
2022-12-15T06:24:54.900Z,22.16
2022-12-15T06:25:50.458Z,22.18
2022-12-15T06:26:46.007Z,22.09
2022-12-15T06:27:41.540Z,22.07
2022-12-15T06:28:37.089Z,22.12
2022-12-15T06:29:32.743Z,22.13
2022-12-15T06:30:28.296Z,22.11
2022-12-15T06:31:23.876Z,22.11
2022-12-15T06:32:19.355Z,22.09
2022-12-15T06:33:14.915Z,22.12
2022-12-15T06:34:10.433Z,22.18
2022-12-15T06:35:05.963Z,22.12
2022-12-15T06:36:01.511Z,22.16
2022-12-15T06:36:57.538Z,22.19
2022-12-15T06:37:53.084Z,22.15
2022-12-15T06:38:49.843Z,22.07
2022-12-15T06:39:44.219Z,22.21
2022-12-15T06:40:39.762Z,22.11
2022-12-15T06:41:42.471Z,22.12
2022-12-15T06:42:38.012Z,22.15
2022-12-15T06:43:34.258Z,22.18
2022-12-15T06:44:29.115Z,22.19
2022-12-15T06:45:24.653Z,22.18
2022-12-15T06:46:20.287Z,22.22
2022-12-15T06:47:15.765Z,22.19
2022-12-15T06:48:11.303Z,22.22
2022-12-15T06:49:06.856Z,22.18
2022-12-15T06:50:02.387Z,22.19
2022-12-15T06:50:57.939Z,22.21
2022-12-15T06:51:53.480Z,22.23
2022-12-15T06:52:49.031Z,22.18
2022-12-15T06:53:33.749Z,22.23
2022-12-15T06:54:30.022Z,22.18
2022-12-15T06:55:25.559Z,22.16
2022-12-15T06:56:34.103Z,22.16
2022-12-15T06:57:27.680Z,22.13
2022-12-15T06:58:12.176Z,22.18
2022-12-15T06:59:19.290Z,22.11
2022-12-15T07:00:03.854Z,22.12
2022-12-15T07:01:11.463Z,22.16
2022-12-15T07:02:07.398Z,22.15
2022-12-15T07:03:02.920Z,22.09
2022-12-15T07:03:59.578Z,22.13
2022-12-15T07:04:43.793Z,22.15
2022-12-15T07:05:50.392Z,22.21
2022-12-15T07:06:35.877Z,22.18
2022-12-15T07:07:31.409Z,22.15
2022-12-15T07:08:30.901Z,22.16
2022-12-15T07:09:11.450Z,22.13
2022-12-15T07:10:06.988Z,22.12
2022-12-15T07:11:13.593Z,22.18
2022-12-15T07:11:58.072Z,22.19
2022-12-15T07:12:42.539Z,22.13
2022-12-15T07:13:38.082Z,22.19
2022-12-15T07:14:33.635Z,22.19
2022-12-15T07:15:29.204Z,22.19
2022-12-15T07:16:35.877Z,22.12
2022-12-15T07:17:31.420Z,22.19
2022-12-15T07:18:26.979Z,22.13
2022-12-15T07:19:11.478Z,22.16
2022-12-15T07:20:18.329Z,22.18
2022-12-15T07:21:14.859Z,22.19
2022-12-15T07:22:10.400Z,22.15
2022-12-15T07:23:05.949Z,22.18
2022-12-15T07:23:55.870Z,22.15
2022-12-15T07:24:45.978Z,22.15
2022-12-15T07:25:41.514Z,22.18
2022-12-15T07:26:37.060Z,22.13
2022-12-15T07:27:43.664Z,22.16
2022-12-15T07:28:29.595Z,22.16
2022-12-15T07:29:24.769Z,22.12
2022-12-15T07:30:36.799Z,22.12
2022-12-15T07:31:26.957Z,22.18
2022-12-15T07:32:22.443Z,22.19
2022-12-15T07:33:17.971Z,22.19
2022-12-15T07:34:13.527Z,22.19
2022-12-15T07:34:58.183Z,22.13
2022-12-15T07:35:53.733Z,22.21
2022-12-15T07:36:52.493Z,22.13
2022-12-15T07:37:44.797Z,22.21
2022-12-15T07:38:29.276Z,22.18
2022-12-15T07:39:24.816Z,22.18
2022-12-15T07:40:20.356Z,22.22
2022-12-15T07:41:15.895Z,22.23
2022-12-15T07:42:11.446Z,22.21
2022-12-15T07:43:18.063Z,22.15
2022-12-15T07:44:02.532Z,22.21
2022-12-15T07:44:58.073Z,22.21
2022-12-15T07:45:53.693Z,22.19
2022-12-15T07:46:49.372Z,22.18
2022-12-15T07:47:44.729Z,22.22
2022-12-15T07:48:51.331Z,22.30
2022-12-15T07:49:35.806Z,22.19
2022-12-15T07:50:31.359Z,22.23
2022-12-15T07:51:27.010Z,22.21
2022-12-15T07:52:22.449Z,22.23
2022-12-15T07:53:17.998Z,22.18
2022-12-15T07:54:13.523Z,22.25
2022-12-15T07:55:09.070Z,22.34
2022-12-15T07:56:07.962Z,22.34
2022-12-15T07:57:00.667Z,22.28
2022-12-15T07:57:56.203Z,22.33
2022-12-15T07:58:51.764Z,22.28
2022-12-15T07:59:47.314Z,22.33
2022-12-15T08:00:48.630Z,22.33
2022-12-15T08:01:38.561Z,22.33
2022-12-15T08:02:34.046Z,22.40
2022-12-15T08:03:30.042Z,22.33
2022-12-15T08:04:25.026Z,22.33
2022-12-15T08:05:20.566Z,22.41
2022-12-15T08:06:16.143Z,22.36
2022-12-15T08:07:11.697Z,22.33
2022-12-15T08:07:56.338Z,22.40
2022-12-15T08:08:51.881Z,22.40
2022-12-15T08:09:47.931Z,22.38
2022-12-15T08:10:43.968Z,22.40
2022-12-15T08:11:28.644Z,22.43
2022-12-15T08:12:24.192Z,22.49
2022-12-15T08:13:44.974Z,22.43
2022-12-15T08:14:17.877Z,22.46
2022-12-15T08:15:11.832Z,22.37
2022-12-15T08:16:07.427Z,22.36
2022-12-15T08:17:03.034Z,22.41
2022-12-15T08:17:58.943Z,22.41
2022-12-15T08:18:54.479Z,22.33
2022-12-15T08:19:50.021Z,22.40
2022-12-15T08:20:45.579Z,22.31
2022-12-15T08:21:41.154Z,22.37
2022-12-15T08:22:36.709Z,22.30
2022-12-15T08:23:32.827Z,22.36
2022-12-15T08:24:27.791Z,22.34
2022-12-15T08:25:23.328Z,22.36
2022-12-15T08:26:18.867Z,22.34
2022-12-15T08:27:14.916Z,22.31
2022-12-15T08:28:10.463Z,22.31
2022-12-15T08:30:01.560Z,22.37
2022-12-15T08:30:57.088Z,22.34
2022-12-15T08:31:52.769Z,22.31
2022-12-15T08:32:51.875Z,22.36
2022-12-15T08:33:43.728Z,22.38
2022-12-15T08:34:39.753Z,22.37
2022-12-15T08:35:55.803Z,22.40
2022-12-15T08:36:30.870Z,22.34
2022-12-15T08:37:15.531Z,22.33
2022-12-15T08:38:11.200Z,22.40
2022-12-15T08:39:06.629Z,22.33
2022-12-15T08:40:02.664Z,22.33
2022-12-15T08:40:58.217Z,22.43
2022-12-15T08:41:53.749Z,22.33
2022-12-15T08:42:49.289Z,22.38
2022-12-15T08:43:48.483Z,22.34
2022-12-15T08:44:40.886Z,22.41
2022-12-15T08:45:36.518Z,22.36
2022-12-15T08:46:32.041Z,22.33
2022-12-15T08:47:27.528Z,22.44
2022-12-15T08:48:23.054Z,22.40
2022-12-15T08:49:22.017Z,22.44
2022-12-15T08:50:14.230Z,22.44
2022-12-15T08:50:58.912Z,22.41
2022-12-15T08:51:54.446Z,22.40
2022-12-15T08:53:13.858Z,22.48
2022-12-15T08:53:46.928Z,22.46
2022-12-15T08:54:42.093Z,22.51
2022-12-15T08:55:26.780Z,22.59
2022-12-15T08:56:22.320Z,22.51
2022-12-15T08:57:17.875Z,22.55
2022-12-15T08:58:13.422Z,22.64
2022-12-15T08:59:08.984Z,22.71
2022-12-15T09:00:05.023Z,22.71
2022-12-15T09:00:49.760Z,22.68
2022-12-15T09:01:45.437Z,22.74
2022-12-15T09:02:40.898Z,22.67
2022-12-15T09:03:25.937Z,22.74
2022-12-15T09:04:21.509Z,22.78
2022-12-15T09:05:06.139Z,22.83
2022-12-15T09:06:01.685Z,22.83
2022-12-15T09:06:57.264Z,22.81
2022-12-15T09:07:41.930Z,22.80
2022-12-15T09:08:37.479Z,22.85
2022-12-15T09:09:33.063Z,22.81
2022-12-15T09:10:28.581Z,22.73
2022-12-15T09:11:24.119Z,22.89
2022-12-15T09:12:19.670Z,22.81
2022-12-15T09:13:15.214Z,22.71
2022-12-15T09:13:59.886Z,22.77
2022-12-15T09:14:55.425Z,22.76
2022-12-15T09:16:35.732Z,22.73
2022-12-15T09:17:31.204Z,22.68
2022-12-15T09:18:26.751Z,22.70
2022-12-15T09:19:22.369Z,22.64
2022-12-15T09:20:18.404Z,22.59
2022-12-15T09:21:13.940Z,22.58
2022-12-15T09:22:09.527Z,22.59
2022-12-15T09:23:05.075Z,22.53
2022-12-15T09:24:00.973Z,22.52
2022-12-15T09:24:56.205Z,22.58
2022-12-15T09:25:51.751Z,22.56
2022-12-15T09:26:47.297Z,22.52
2022-12-15T09:27:42.834Z,22.46
2022-12-15T09:28:27.509Z,22.49
2022-12-15T09:29:23.049Z,22.58
2022-12-15T09:30:18.591Z,22.46
2022-12-15T09:31:14.166Z,22.44
2022-12-15T09:32:13.990Z,22.43
2022-12-15T09:33:05.815Z,22.41
2022-12-15T09:34:01.371Z,22.46
2022-12-15T09:34:56.905Z,22.38
2022-12-15T09:35:53.003Z,22.44
2022-12-15T09:36:48.550Z,22.40
2022-12-15T09:37:49.981Z,22.41
2022-12-15T09:38:39.632Z,22.44
2022-12-15T09:39:35.210Z,22.46
2022-12-15T09:40:30.791Z,22.43
2022-12-15T09:41:27.157Z,22.44
2022-12-15T09:42:22.693Z,22.44
2022-12-15T09:43:34.306Z,22.43
2022-12-15T09:44:13.784Z,22.34
2022-12-15T09:45:09.339Z,22.40
2022-12-15T09:46:04.951Z,22.30
2022-12-15T09:47:00.924Z,22.31
2022-12-15T09:47:45.599Z,22.31
2022-12-15T09:48:41.255Z,22.41
2022-12-15T09:49:36.791Z,22.41
2022-12-15T09:50:32.377Z,22.46
2022-12-15T09:51:27.940Z,22.38
2022-12-15T09:52:23.482Z,22.34
2022-12-15T09:53:23.314Z,22.31
2022-12-15T09:54:04.730Z,22.36
2022-12-15T09:54:59.864Z,22.44
2022-12-15T09:55:55.458Z,22.31
2022-12-15T09:56:50.846Z,22.30
2022-12-15T09:57:46.391Z,22.34
2022-12-15T09:58:42.526Z,22.30
2022-12-15T09:59:38.075Z,22.43
2022-12-15T10:00:33.631Z,22.46
2022-12-15T10:01:29.704Z,22.34
2022-12-15T10:02:25.307Z,22.41
2022-12-15T10:03:21.020Z,22.44
2022-12-15T10:04:17.055Z,22.40
2022-12-15T10:05:12.449Z,22.41
2022-12-15T10:06:16.960Z,22.41
2022-12-15T10:07:03.761Z,22.43
2022-12-15T10:07:59.329Z,22.41
2022-12-15T10:08:54.900Z,22.43
2022-12-15T10:09:50.471Z,22.44
2022-12-15T10:10:46.073Z,22.43
2022-12-15T10:11:42.168Z,22.41
2022-12-15T10:12:37.684Z,22.31
2022-12-15T10:13:34.231Z,22.43
2022-12-15T10:14:28.763Z,22.41
2022-12-15T10:15:13.434Z,22.33
2022-12-15T10:16:09.002Z,22.40
2022-12-15T10:16:53.690Z,22.36
2022-12-15T10:17:50.339Z,22.34
2022-12-15T10:18:44.771Z,22.33
2022-12-15T10:19:29.941Z,22.34
2022-12-15T10:20:25.504Z,22.31
2022-12-15T10:21:21.531Z,22.37
2022-12-15T10:22:17.089Z,22.41
2022-12-15T10:23:12.668Z,22.37
2022-12-15T10:24:08.676Z,22.41
2022-12-15T10:25:11.795Z,22.43
2022-12-15T10:25:59.784Z,22.44
2022-12-15T10:26:55.337Z,22.52
2022-12-15T10:27:50.883Z,22.58
2022-12-15T10:28:46.427Z,22.46
2022-12-15T10:29:42.492Z,22.38
2022-12-15T10:30:38.060Z,22.53
2022-12-15T10:31:33.584Z,22.51
2022-12-15T10:32:18.708Z,22.53
2022-12-15T10:33:14.266Z,22.48
2022-12-15T10:33:58.933Z,22.46
2022-12-15T10:34:54.603Z,22.41
2022-12-15T10:35:50.034Z,22.48
2022-12-15T10:36:45.581Z,22.44
2022-12-15T10:37:41.616Z,22.40
2022-12-15T10:38:26.294Z,22.41
2022-12-15T10:39:21.851Z,22.41
2022-12-15T10:40:17.388Z,22.46
2022-12-15T10:41:02.063Z,22.51
2022-12-15T10:41:58.218Z,22.55
2022-12-15T10:42:53.656Z,22.58
2022-12-15T10:43:50.180Z,22.51
2022-12-15T10:44:44.754Z,22.56
2022-12-15T10:45:29.444Z,22.44
2022-12-15T10:46:14.320Z,22.44
2022-12-15T10:47:09.682Z,22.48
2022-12-15T10:48:05.218Z,22.53
2022-12-15T10:49:00.756Z,22.53
2022-12-15T10:49:45.427Z,22.48
2022-12-15T10:50:30.084Z,22.48
2022-12-15T10:51:25.685Z,22.53
2022-12-15T10:52:21.222Z,22.61
2022-12-15T10:53:05.891Z,22.52
2022-12-15T10:53:51.069Z,22.59
2022-12-15T10:54:46.614Z,22.64
2022-12-15T10:55:42.279Z,22.67
2022-12-15T10:56:37.709Z,22.67
2022-12-15T10:57:33.269Z,22.67
2022-12-15T10:58:18.413Z,22.62
2022-12-15T10:59:13.978Z,22.56
2022-12-15T11:00:09.540Z,22.55
2022-12-15T11:01:05.220Z,22.53
2022-12-15T11:02:00.797Z,22.55
2022-12-15T11:02:56.317Z,22.58
2022-12-15T11:03:51.971Z,22.55
2022-12-15T11:04:47.304Z,22.52
2022-12-15T11:05:42.965Z,22.53
2022-12-15T11:06:38.384Z,22.56
2022-12-15T11:07:33.940Z,22.52
2022-12-15T11:08:29.486Z,22.56
2022-12-15T11:09:14.158Z,22.44
2022-12-15T11:10:09.706Z,22.40
2022-12-15T11:11:07.729Z,22.38
2022-12-15T11:12:00.816Z,22.55
2022-12-15T11:12:58.580Z,22.36
2022-12-15T11:13:43.474Z,22.49
2022-12-15T11:14:38.178Z,22.44
2022-12-15T11:15:34.338Z,22.41
2022-12-15T11:16:18.905Z,22.37
2022-12-15T11:17:14.465Z,22.53
2022-12-15T11:18:10.560Z,22.46
2022-12-15T11:19:06.107Z,22.44
2022-12-15T11:20:03.567Z,22.53
2022-12-15T11:20:57.189Z,22.44
2022-12-15T11:21:52.733Z,22.55
2022-12-15T11:22:48.276Z,22.44
2022-12-15T11:23:33.441Z,22.48
2022-12-15T11:24:28.504Z,22.44
2022-12-15T11:25:24.050Z,22.41
2022-12-15T11:26:19.607Z,22.40
2022-12-15T11:27:15.148Z,22.43
2022-12-15T11:28:10.703Z,22.46
2022-12-15T11:29:06.253Z,22.40
2022-12-15T11:30:01.810Z,22.38
2022-12-15T11:30:57.350Z,22.46
2022-12-15T11:31:42.034Z,22.40
2022-12-15T11:32:37.579Z,22.48
2022-12-15T11:33:33.739Z,22.38
2022-12-15T11:34:28.704Z,22.44
2022-12-15T11:35:24.745Z,22.40
2022-12-15T11:36:20.285Z,22.41
2022-12-15T11:37:15.845Z,22.40
2022-12-15T11:38:12.527Z,22.38
2022-12-15T11:39:08.646Z,22.38
2022-12-15T11:40:04.148Z,22.40
2022-12-15T11:40:59.714Z,22.46
2022-12-15T11:41:55.259Z,22.41
2022-12-15T11:42:50.810Z,22.48
2022-12-15T11:43:46.373Z,22.56
2022-12-15T11:44:41.901Z,22.58
2022-12-15T11:45:37.451Z,22.67